Time;durP1;ratioP1;P1;durP2;ratioP2;P2;SDS_P1;SDS_P2;PMS_P1;PMS_P2;Temp;Humidity;BMP_temperature;BMP_pressure;BME280_temperature;BME280_humidity;BME280_pressure;Samples;Min_cycle;Max_cycle;Signal;HPM_P1;HPM_P2
2023/05/01 00:02:15;;;;;;;6.70;2.75;;;14.90;75.10;;;;;;5113234;28;20032;-75
2023/05/01 00:04:41;;;;;;;5.03;2.42;;;14.90;75.10;;;;;;5114084;28;20031;-74
2023/05/01 00:07:07;;;;;;;4.30;2.15;;;14.90;74.50;;;;;;5114180;28;20461;-75
2023/05/01 00:09:32;;;;;;;6.72;2.95;;;14.90;74.50;;;;;;5112989;28;20118;-74
2023/05/01 00:11:58;;;;;;;6.55;2.45;;;14.80;74.60;;;;;;5113197;28;20028;-74
2023/05/01 00:14:24;;;;;;;5.00;2.42;;;14.80;74.50;;;;;;5113852;28;20032;-74
2023/05/01 00:16:49;;;;;;;4.85;2.83;;;14.80;74.70;;;;;;5113952;28;20038;-75
2023/05/01 00:19:18;;;;;;;3.65;2.30;;;14.80;74.60;;;;;;5113690;28;20044;-75
2023/05/01 00:21:47;;;;;;;6.47;2.40;;;14.80;74.70;;;;;;5113848;28;20055;-74
2023/05/01 00:24:15;;;;;;;5.22;2.47;;;14.70;75.50;;;;;;5113756;28;20085;-74
2023/05/01 00:26:41;;;;;;;5.22;2.80;;;14.70;74.50;;;;;;5113716;28;20032;-74
2023/05/01 00:29:07;;;;;;;8.63;2.90;;;14.60;74.60;;;;;;5095841;28;20031;-74
2023/05/01 00:31:33;;;;;;;5.63;3.00;;;14.60;74.80;;;;;;5113846;28;20024;-74
2023/05/01 00:33:58;;;;;;;4.13;2.55;;;14.60;75.20;;;;;;5112532;28;20028;-74
2023/05/01 00:36:24;;;;;;;5.78;2.88;;;14.60;75.00;;;;;;5112583;28;20050;-74
2023/05/01 00:38:50;;;;;;;4.60;2.70;;;14.60;74.80;;;;;;5112627;28;20050;-75
2023/05/01 00:41:16;;;;;;;5.75;2.35;;;14.70;74.80;;;;;;5112661;28;20052;-75
2023/05/01 00:43:41;;;;;;;7.85;2.60;;;14.60;74.80;;;;;;5113552;28;20020;-74
2023/05/01 00:46:07;;;;;;;5.13;2.80;;;14.60;75.20;;;;;;5113475;28;20024;-75
2023/05/01 00:48:33;;;;;;;3.85;2.47;;;14.60;75.30;;;;;;5113502;28;20104;-75
2023/05/01 00:51:00;;;;;;;3.50;2.60;;;14.60;74.90;;;;;;5113456;28;20043;-74
2023/05/01 00:53:27;;;;;;;6.57;3.13;;;14.50;75.90;;;;;;5113378;28;20045;-74
2023/05/01 00:55:55;;;;;;;5.57;2.80;;;14.50;75.00;;;;;;5112525;28;20012;-75
2023/05/01 00:58:21;;;;;;;4.13;2.45;;;14.50;75.50;;;;;;5113355;28;20084;-74
2023/05/01 01:00:48;;;;;;;5.25;2.65;;;14.60;75.80;;;;;;5113505;28;20020;-74
2023/05/01 01:03:14;;;;;;;8.70;2.90;;;14.60;75.60;;;;;;5113297;28;20028;-75
2023/05/01 01:06:04;;;;;;;3.95;2.58;;;14.50;75.40;;;;;;5095408;28;20032;-74
2023/05/01 01:09:07;;;;;;;4.22;2.58;;;14.50;75.00;;;;;;5113273;28;20043;-75
2023/05/01 01:11:54;;;;;;;7.03;2.92;;;14.50;75.40;;;;;;5096076;28;20058;-74
2023/05/01 01:14:38;;;;;;;5.72;2.65;;;14.50;76.20;;;;;;5113266;28;20047;-74
2023/05/01 01:17:07;;;;;;;5.50;2.72;;;14.50;75.40;;;;;;5113298;28;20054;-74
2023/05/01 01:19:57;;;;;;;6.47;2.42;;;14.50;75.20;;;;;;5112942;28;20048;-74
2023/05/01 01:22:26;;;;;;;6.43;2.80;;;14.50;75.10;;;;;;5113601;28;20016;-74
2023/05/01 01:25:31;;;;;;;7.70;2.90;;;14.40;75.30;;;;;;5117204;28;20047;-74
2023/05/01 01:28:31;;;;;;;4.43;2.58;;;14.40;75.50;;;;;;5116430;28;20032;-74
2023/05/01 01:31:28;;;;;;;5.90;2.95;;;14.50;75.90;;;;;;5116082;28;20028;-74
2023/05/01 01:34:18;;;;;;;5.53;2.95;;;14.40;75.80;;;;;;5116902;28;20032;-74
2023/05/01 01:37:06;;;;;;;5.30;2.80;;;14.40;75.70;;;;;;5116974;28;20090;-74
2023/05/01 01:39:45;;;;;;;4.15;2.83;;;14.40;75.90;;;;;;5116904;28;20021;-74
2023/05/01 01:42:18;;;;;;;6.05;3.00;;;14.30;75.80;;;;;;5116886;28;20084;-74
2023/05/01 01:44:55;;;;;;;6.15;2.88;;;14.30;76.40;;;;;;5115615;28;20027;-74
2023/05/01 01:47:27;;;;;;;5.97;2.60;;;14.30;76.10;;;;;;5116821;28;20043;-74
2023/05/01 01:49:55;;;;;;;5.20;2.77;;;14.30;76.30;;;;;;5116762;28;20051;-74
2023/05/01 01:52:22;;;;;;;4.38;2.80;;;14.30;76.30;;;;;;5116701;28;20261;-74
2023/05/01 01:54:53;;;;;;;4.68;2.78;;;14.30;76.40;;;;;;5116541;28;20046;-74
2023/05/01 01:57:21;;;;;;;6.97;3.00;;;14.30;76.30;;;;;;5116648;28;20024;-74
2023/05/01 01:59:48;;;;;;;4.60;2.72;;;14.40;76.30;;;;;;5116538;28;20026;-74
2023/05/01 02:02:18;;;;;;;5.25;3.05;;;14.30;76.20;;;;;;5115506;28;20028;-74
2023/05/01 02:04:45;;;;;;;7.80;3.30;;;14.40;76.00;;;;;;5115527;28;20032;-75
2023/05/01 02:07:13;;;;;;;5.38;3.00;;;14.40;76.10;;;;;;5115478;28;20028;-74
2023/05/01 02:09:40;;;;;;;7.85;2.97;;;14.40;75.90;;;;;;5115417;28;20031;-74
2023/05/01 02:12:07;;;;;;;5.50;2.42;;;14.40;75.80;;;;;;5115244;28;20100;-75
2023/05/01 02:14:34;;;;;;;5.50;2.90;;;14.40;75.80;;;;;;5115205;28;20035;-74
2023/05/01 02:17:01;;;;;;;6.35;2.80;;;14.40;75.60;;;;;;5116210;28;20050;-75
2023/05/01 02:19:28;;;;;;;6.68;2.50;;;14.30;75.40;;;;;;5114853;28;20040;-74
2023/05/01 02:21:56;;;;;;;4.88;2.38;;;14.30;75.80;;;;;;5116047;28;20534;-74
2023/05/01 02:24:23;;;;;;;6.18;3.05;;;14.30;76.10;;;;;;5116071;28;20069;-74
2023/05/01 02:27:00;;;;;;;6.63;2.70;;;14.30;76.00;;;;;;5115997;28;20039;-74
2023/05/01 02:29:26;;;;;;;7.13;3.20;;;14.30;76.00;;;;;;5115034;28;20052;-75
2023/05/01 02:31:52;;;;;;;5.65;2.97;;;14.30;75.90;;;;;;5114966;28;20028;-74
2023/05/01 02:34:17;;;;;;;6.13;3.17;;;14.40;75.90;;;;;;5114662;28;20032;-74
2023/05/01 02:36:43;;;;;;;6.57;3.05;;;14.30;75.80;;;;;;5114773;28;20028;-74
2023/05/01 02:39:09;;;;;;;5.93;2.80;;;14.30;75.80;;;;;;5115736;28;20029;-74
2023/05/01 02:41:35;;;;;;;5.40;3.13;;;14.30;75.80;;;;;;5115888;28;20032;-74
2023/05/01 02:44:04;;;;;;;5.13;3.08;;;14.30;75.70;;;;;;5115683;28;20489;-74
2023/05/01 02:46:33;;;;;;;6.45;2.72;;;14.30;75.80;;;;;;5115610;28;20028;-74
2023/05/01 02:49:01;;;;;;;5.68;2.67;;;14.30;75.90;;;;;;5114623;28;20053;-74
2023/05/01 02:51:30;;;;;;;6.55;2.78;;;14.30;76.10;;;;;;5115527;28;20059;-74
2023/05/01 02:53:58;;;;;;;4.47;2.85;;;14.30;76.10;;;;;;5115432;28;20024;-74
2023/05/01 02:56:26;;;;;;;5.15;2.85;;;14.20;76.20;;;;;;5115452;28;20051;-75
2023/05/01 02:58:52;;;;;;;5.38;3.20;;;14.20;75.60;;;;;;5115364;28;20019;-74
2023/05/01 03:01:18;;;;;;;6.25;2.92;;;14.10;75.60;;;;;;5115324;28;20021;-74
2023/05/01 03:03:44;;;;;;;6.20;2.95;;;14.10;75.90;;;;;;5115326;28;20035;-75
2023/05/01 03:06:09;;;;;;;6.78;3.20;;;14.10;75.90;;;;;;5097473;28;20036;-74
2023/05/01 03:08:35;;;;;;;6.25;3.05;;;14.00;76.00;;;;;;5115204;28;20020;-74
2023/05/01 03:11:05;;;;;;;4.85;2.90;;;14.10;76.40;;;;;;5114075;28;20190;-74
2023/05/01 03:13:31;;;;;;;4.97;2.95;;;14.10;76.60;;;;;;5115142;28;20031;-74
2023/05/01 03:15:57;;;;;;;4.60;3.08;;;14.00;76.50;;;;;;5114104;28;20103;-75
2023/05/01 03:18:22;;;;;;;7.22;3.35;;;14.00;76.60;;;;;;5115033;28;20020;-74
2023/05/01 03:20:55;;;;;;;4.50;2.78;;;14.10;76.40;;;;;;5114726;28;20441;-74
2023/05/01 03:23:22;;;;;;;4.90;3.00;;;14.00;76.20;;;;;;5114257;28;20012;-75
2023/05/01 03:25:48;;;;;;;5.78;3.22;;;14.00;76.00;;;;;;5114886;28;20031;-74
2023/05/01 03:28:15;;;;;;;5.03;2.88;;;14.00;76.20;;;;;;5114851;28;20031;-74
2023/05/01 03:30:41;;;;;;;6.30;3.10;;;14.00;76.30;;;;;;5113737;28;20020;-74
2023/05/01 03:33:06;;;;;;;6.53;3.17;;;13.90;76.40;;;;;;5114859;28;20031;-75
2023/05/01 03:35:32;;;;;;;5.57;2.92;;;13.90;76.50;;;;;;5114663;28;20080;-74
2023/05/01 03:37:57;;;;;;;7.65;3.35;;;13.80;76.60;;;;;;5114609;28;20080;-74
2023/05/01 03:40:24;;;;;;;7.82;3.30;;;13.70;76.70;;;;;;5114564;28;20020;-74
2023/05/01 03:42:50;;;;;;;6.55;3.08;;;13.60;76.90;;;;;;5113688;28;20080;-74
2023/05/01 03:45:15;;;;;;;7.65;3.10;;;13.60;77.20;;;;;;5113317;28;20032;-74
2023/05/01 03:47:41;;;;;;;5.78;2.78;;;13.60;77.40;;;;;;5114420;28;20024;-74
2023/05/01 03:50:08;;;;;;;6.35;3.08;;;13.70;77.40;;;;;;5114381;28;20024;-74
2023/05/01 03:52:33;;;;;;;5.30;2.78;;;13.70;77.50;;;;;;5113253;28;20028;-74
2023/05/01 03:54:59;;;;;;;9.35;3.38;;;13.70;77.40;;;;;;5113193;28;20035;-74
2023/05/01 03:57:26;;;;;;;5.10;3.17;;;13.70;77.20;;;;;;5114304;28;20027;-74
2023/05/01 03:59:52;;;;;;;5.45;3.08;;;13.50;77.30;;;;;;5114236;28;20036;-74
2023/05/01 04:02:17;;;;;;;6.07;3.00;;;13.50;77.80;;;;;;5114196;28;20027;-74
2023/05/01 04:04:43;;;;;;;5.05;2.90;;;13.40;78.20;;;;;;5114092;28;20032;-75
2023/05/01 04:07:09;;;;;;;5.53;2.70;;;13.50;78.40;;;;;;5114240;28;20036;-74
2023/05/01 04:09:35;;;;;;;5.55;3.13;;;13.60;78.30;;;;;;5114012;28;20031;-74
2023/05/01 04:12:01;;;;;;;4.72;2.58;;;13.60;78.10;;;;;;5114122;28;20024;-74
2023/05/01 04:14:27;;;;;;;8.65;3.20;;;13.60;78.00;;;;;;5113931;28;20036;-74
2023/05/01 04:16:53;;;;;;;6.78;3.00;;;13.60;77.70;;;;;;5113908;28;20384;-74
2023/05/01 04:19:18;;;;;;;5.13;2.88;;;13.60;77.90;;;;;;5112646;28;20060;-74
2023/05/01 04:21:44;;;;;;;5.93;3.25;;;13.60;77.90;;;;;;5114010;28;20040;-74
2023/05/01 04:24:10;;;;;;;8.90;3.58;;;13.60;77.70;;;;;;5113931;28;20032;-74
2023/05/01 04:26:36;;;;;;;5.95;3.13;;;13.50;77.80;;;;;;5113766;28;20101;-74
2023/05/01 04:29:01;;;;;;;6.07;3.05;;;13.50;78.00;;;;;;5113872;28;20028;-74
2023/05/01 04:31:27;;;;;;;6.78;3.33;;;13.50;78.00;;;;;;5113679;28;20028;-74
2023/05/01 04:33:53;;;;;;;5.95;3.20;;;13.50;78.10;;;;;;5113718;28;20032;-73
2023/05/01 04:36:19;;;;;;;5.93;3.20;;;13.40;78.30;;;;;;5113605;28;20084;-74
2023/05/01 04:38:44;;;;;;;5.65;3.13;;;13.50;78.30;;;;;;5112638;28;20020;-73
2023/05/01 04:41:10;;;;;;;7.90;3.47;;;13.50;78.20;;;;;;5113552;28;20036;-74
2023/05/01 04:43:35;;;;;;;8.82;3.35;;;13.50;78.10;;;;;;5112559;28;20023;-74
2023/05/01 04:46:03;;;;;;;6.20;3.17;;;13.40;78.30;;;;;;5113493;28;20495;-74
2023/05/01 04:48:29;;;;;;;7.88;3.28;;;13.30;78.50;;;;;;5113480;28;20087;-74
2023/05/01 04:50:54;;;;;;;8.48;3.58;;;13.30;78.50;;;;;;5113497;28;20024;-74
2023/05/01 04:53:20;;;;;;;7.68;3.58;;;13.30;78.90;;;;;;5113409;28;20025;-74
2023/05/01 04:55:46;;;;;;;9.38;3.55;;;13.30;79.20;;;;;;5113307;28;20035;-74
2023/05/01 04:58:11;;;;;;;5.68;3.47;;;13.30;79.30;;;;;;5117191;28;20020;-74
2023/05/01 05:00:37;;;;;;;5.82;3.58;;;13.30;79.40;;;;;;5120155;28;20017;-74
2023/05/01 05:03:03;;;;;;;7.85;3.55;;;13.30;79.60;;;;;;5119160;28;20508;-74
2023/05/01 05:05:29;;;;;;;8.95;4.10;;;13.30;79.60;;;;;;5120118;28;20016;-74
2023/05/01 05:07:54;;;;;;;8.70;4.32;;;13.30;79.30;;;;;;5120053;28;20035;-74
2023/05/01 05:10:20;;;;;;;10.75;3.83;;;13.30;79.20;;;;;;5119160;28;20035;-74
2023/05/01 05:12:45;;;;;;;9.07;4.38;;;13.30;78.80;;;;;;5119042;28;20473;-74
2023/05/01 05:15:11;;;;;;;9.25;3.80;;;13.30;79.00;;;;;;5119913;28;20032;-74
2023/05/01 05:17:36;;;;;;;8.40;4.10;;;13.40;79.10;;;;;;5119953;28;20051;-74
2023/05/01 05:20:02;;;;;;;9.10;3.78;;;13.40;79.20;;;;;;5119772;28;20076;-74
2023/05/01 05:22:28;;;;;;;9.30;3.88;;;13.40;79.20;;;;;;5120083;28;20029;-74
2023/05/01 05:24:56;;;;;;;8.07;4.18;;;13.50;79.40;;;;;;5118968;28;20028;-74
2023/05/01 05:27:22;;;;;;;8.43;3.90;;;13.50;79.70;;;;;;5118916;28;20426;-74
2023/05/01 05:29:47;;;;;;;7.80;3.63;;;13.50;79.40;;;;;;5119118;28;20024;-73
2023/05/01 05:32:13;;;;;;;6.53;4.07;;;13.60;79.50;;;;;;5118785;28;20496;-74
2023/05/01 05:34:39;;;;;;;5.93;3.88;;;13.60;79.10;;;;;;5119806;28;20074;-74
2023/05/01 05:37:05;;;;;;;9.23;4.28;;;13.60;79.10;;;;;;5118859;28;20034;-73
2023/05/01 05:39:30;;;;;;;7.38;3.65;;;13.70;79.10;;;;;;5118804;28;20052;-74
2023/05/01 05:41:57;;;;;;;7.95;3.90;;;13.70;78.90;;;;;;5119903;28;20044;-74
2023/05/01 05:44:23;;;;;;;7.78;3.72;;;13.70;78.80;;;;;;5119863;28;20024;-74
2023/05/01 05:46:48;;;;;;;6.25;3.70;;;13.70;78.70;;;;;;5118689;28;20032;-74
2023/05/01 05:49:14;;;;;;;8.00;3.83;;;13.80;78.80;;;;;;5118736;28;20035;-74
2023/05/01 05:51:40;;;;;;;8.20;3.72;;;13.80;78.70;;;;;;5118766;28;20040;-74
2023/05/01 05:54:05;;;;;;;6.78;3.92;;;13.80;78.50;;;;;;5119576;28;20084;-74
2023/05/01 05:56:31;;;;;;;6.88;3.92;;;13.90;78.40;;;;;;5118752;28;20024;-74
2023/05/01 05:58:57;;;;;;;7.47;4.00;;;13.90;78.30;;;;;;5119628;28;20028;-74
2023/05/01 06:01:23;;;;;;;7.00;3.83;;;13.90;78.30;;;;;;5119732;28;20090;-74
2023/05/01 06:03:48;;;;;;;8.52;4.10;;;13.90;78.30;;;;;;5119553;28;20031;-74
2023/05/01 06:06:14;;;;;;;7.80;4.50;;;13.90;78.60;;;;;;5119484;28;20035;-74
2023/05/01 06:08:39;;;;;;;7.05;4.45;;;13.80;79.10;;;;;;5118802;28;20078;-74
2023/05/01 06:11:07;;;;;;;7.75;4.22;;;13.80;79.10;;;;;;5098521;28;20024;-73
2023/05/01 06:13:33;;;;;;;9.50;4.65;;;13.80;79.00;;;;;;5116228;28;20016;-74
2023/05/01 06:15:59;;;;;;;9.23;4.53;;;13.90;79.10;;;;;;5116251;28;20024;-74
2023/05/01 06:18:25;;;;;;;10.88;4.47;;;14.00;79.10;;;;;;5116131;28;20020;-73
2023/05/01 06:20:51;;;;;;;7.68;4.38;;;14.00;79.10;;;;;;5114917;28;20058;-74
2023/05/01 06:23:17;;;;;;;9.77;4.30;;;14.00;79.10;;;;;;5116054;28;20024;-74
2023/05/01 06:25:43;;;;;;;9.18;5.13;;;14.00;79.00;;;;;;5116057;28;20017;-74
2023/05/01 06:28:09;;;;;;;8.75;4.65;;;13.90;79.00;;;;;;5116122;28;20035;-74
2023/05/01 06:30:35;;;;;;;8.13;5.07;;;13.90;79.50;;;;;;5115963;28;20035;-74
2023/05/01 06:33:01;;;;;;;8.75;4.22;;;13.90;79.60;;;;;;5116016;28;20028;-73
2023/05/01 06:35:27;;;;;;;10.73;4.70;;;13.90;79.50;;;;;;5097998;28;20073;-74
2023/05/01 06:37:54;;;;;;;11.07;4.72;;;14.00;80.20;;;;;;5114888;28;20558;-74
2023/05/01 06:40:20;;;;;;;8.15;4.20;;;14.00;78.60;;;;;;5114818;28;20046;-74
2023/05/01 06:42:46;;;;;;;6.97;4.10;;;13.90;78.30;;;;;;5115698;28;20080;-74
2023/05/01 06:45:11;;;;;;;8.38;4.45;;;13.90;77.90;;;;;;5115633;28;20059;-74
2023/05/01 06:47:37;;;;;;;10.77;4.90;;;13.90;77.90;;;;;;5115701;28;20036;-74
2023/05/01 06:50:04;;;;;;;9.23;4.55;;;13.90;78.80;;;;;;5114529;28;20054;-74
2023/05/01 06:52:29;;;;;;;10.52;5.03;;;13.90;79.00;;;;;;5114567;28;20025;-74
2023/05/01 06:54:55;;;;;;;12.57;4.97;;;13.90;79.10;;;;;;5115414;28;20032;-74
2023/05/01 06:57:21;;;;;;;10.10;4.90;;;13.90;79.10;;;;;;5114485;28;20060;-74
2023/05/01 06:59:46;;;;;;;10.50;4.82;;;13.90;79.30;;;;;;5097534;28;20084;-74
2023/05/01 07:02:12;;;;;;;8.52;4.80;;;13.90;79.20;;;;;;5115301;28;20035;-74
2023/05/01 07:04:38;;;;;;;11.68;5.05;;;13.80;79.10;;;;;;5114397;28;20035;-74
2023/05/01 07:07:03;;;;;;;8.93;5.15;;;13.90;79.60;;;;;;5114224;28;20032;-74
2023/05/01 07:09:29;;;;;;;9.05;4.50;;;13.90;79.30;;;;;;5115327;28;20049;-74
2023/05/01 07:11:57;;;;;;;10.27;4.85;;;14.00;79.30;;;;;;5114177;28;20032;-74
2023/05/01 07:14:23;;;;;;;8.63;4.40;;;14.00;78.90;;;;;;5114237;28;20036;-74
2023/05/01 07:16:49;;;;;;;10.30;4.90;;;13.80;79.80;;;;;;5115029;28;20054;-74
2023/05/01 07:19:15;;;;;;;12.18;5.38;;;13.90;80.10;;;;;;5114753;28;20035;-74
2023/05/01 07:21:40;;;;;;;7.97;4.60;;;13.90;80.00;;;;;;5113688;28;20035;-74
2023/05/01 07:24:06;;;;;;;9.70;4.72;;;14.00;79.80;;;;;;5096926;28;20043;-74
2023/05/01 07:26:32;;;;;;;8.77;4.55;;;14.00;80.40;;;;;;5114885;28;20032;-74
2023/05/01 07:28:57;;;;;;;10.10;4.50;;;14.10;80.00;;;;;;5113831;28;20036;-74
2023/05/01 07:31:23;;;;;;;8.32;4.68;;;14.20;80.10;;;;;;5113754;28;20099;-74
2023/05/01 07:33:49;;;;;;;8.13;4.93;;;14.20;79.80;;;;;;5114562;28;20092;-74
2023/05/01 07:36:15;;;;;;;10.35;4.43;;;14.20;79.40;;;;;;5114643;28;20020;-74
2023/05/01 07:38:41;;;;;;;8.27;4.38;;;14.30;79.60;;;;;;5114632;28;20020;-74
2023/05/01 07:41:06;;;;;;;7.45;4.38;;;14.30;78.70;;;;;;5096587;28;20040;-75
2023/05/01 07:43:32;;;;;;;8.50;4.80;;;14.30;78.50;;;;;;5114672;28;20051;-74
2023/05/01 07:46:00;;;;;;;7.35;4.53;;;14.30;79.10;;;;;;5114439;28;20032;-74
2023/05/01 07:48:27;;;;;;;10.63;5.05;;;14.30;79.10;;;;;;5113414;28;20024;-74
2023/05/01 07:50:53;;;;;;;8.27;5.00;;;14.40;79.30;;;;;;5113390;28;20028;-74
2023/05/01 07:53:20;;;;;;;8.50;4.95;;;14.40;79.60;;;;;;5113339;28;20062;-74
2023/05/01 07:55:46;;;;;;;9.73;4.72;;;14.50;80.10;;;;;;5114220;28;20024;-74
2023/05/01 07:58:11;;;;;;;10.98;5.20;;;14.50;79.60;;;;;;5114196;28;20080;-74
2023/05/01 08:00:37;;;;;;;10.13;4.65;;;14.60;79.20;;;;;;5096356;28;20028;-74
2023/05/01 08:03:03;;;;;;;10.00;4.93;;;14.60;79.50;;;;;;5114134;28;20016;-74
2023/05/01 08:05:28;;;;;;;8.35;4.85;;;14.60;78.90;;;;;;5113100;28;20032;-74
2023/05/01 08:07:54;;;;;;;9.10;4.70;;;14.60;78.80;;;;;;5114083;28;20036;-74
2023/05/01 08:10:19;;;;;;;8.95;5.60;;;14.70;79.20;;;;;;5114186;28;20028;-74
2023/05/01 08:12:45;;;;;;;9.23;4.78;;;14.60;78.70;;;;;;5113248;28;20032;-74
2023/05/01 08:15:11;;;;;;;10.45;6.05;;;14.70;78.80;;;;;;5113886;28;20030;-74
2023/05/01 08:17:36;;;;;;;9.13;4.90;;;14.80;79.20;;;;;;5113931;28;20024;-74
2023/05/01 08:20:03;;;;;;;12.00;5.25;;;14.80;77.90;;;;;;5113664;28;20048;-74
2023/05/01 08:22:29;;;;;;;7.85;4.95;;;14.90;78.10;;;;;;5113826;28;20012;-74
2023/05/01 08:24:55;;;;;;;10.70;5.40;;;15.00;78.40;;;;;;5112887;28;20032;-74
2023/05/01 08:27:21;;;;;;;8.77;5.68;;;15.10;78.50;;;;;;5112833;28;20038;-74
2023/05/01 08:29:46;;;;;;;11.07;5.70;;;15.10;77.50;;;;;;5113701;28;20035;-74
2023/05/01 08:32:13;;;;;;;11.45;5.72;;;15.10;78.10;;;;;;5112030;28;20044;-74
2023/05/01 08:34:39;;;;;;;9.75;5.63;;;15.20;77.80;;;;;;5112569;28;20032;-74
2023/05/01 08:37:05;;;;;;;8.30;5.65;;;15.20;76.60;;;;;;5112562;28;20035;-74
2023/05/01 08:39:30;;;;;;;10.43;5.65;;;15.20;76.50;;;;;;5113592;28;20024;-74
2023/05/01 08:41:57;;;;;;;8.98;5.88;;;15.20;76.70;;;;;;5112634;28;20024;-74
2023/05/01 08:44:25;;;;;;;9.93;6.20;;;15.20;76.00;;;;;;5113570;28;20044;-74
2023/05/01 08:47:09;;;;;;;8.70;5.38;;;15.20;76.30;;;;;;5113490;28;20024;-74
2023/05/01 08:49:36;;;;;;;10.10;5.63;;;15.20;76.70;;;;;;5113524;28;20058;-74
2023/05/01 08:52:05;;;;;;;12.18;6.20;;;15.30;77.10;;;;;;5113463;28;20020;-74
2023/05/01 08:54:31;;;;;;;11.10;6.28;;;15.30;77.70;;;;;;5113320;28;20484;-73
2023/05/01 08:57:02;;;;;;;11.35;6.40;;;15.40;77.00;;;;;;5112091;28;20023;-74
2023/05/01 08:59:37;;;;;;;9.57;5.95;;;15.50;76.40;;;;;;5112476;28;20039;-74
2023/05/01 09:02:06;;;;;;;12.23;6.13;;;15.70;76.20;;;;;;5113432;28;20027;-74
2023/05/01 09:04:37;;;;;;;9.65;5.93;;;15.80;76.80;;;;;;5113317;28;20050;-74
2023/05/01 09:07:03;;;;;;;10.33;6.50;;;16.00;76.90;;;;;;5113380;28;20058;-74
2023/05/01 09:09:30;;;;;;;11.73;6.00;;;16.10;76.50;;;;;;5113303;28;20297;-74
2023/05/01 09:12:16;;;;;;;11.63;6.20;;;16.20;75.90;;;;;;5113283;28;20020;-74
2023/05/01 09:14:42;;;;;;;11.10;5.63;;;16.40;75.60;;;;;;5113347;28;20028;-74
2023/05/01 09:17:08;;;;;;;10.27;6.07;;;16.50;74.80;;;;;;5095489;28;20123;-74
2023/05/01 09:19:34;;;;;;;7.90;5.80;;;16.60;75.10;;;;;;5111855;28;20076;-74
2023/05/01 09:22:00;;;;;;;9.90;6.15;;;16.80;75.30;;;;;;5112179;28;20052;-74
2023/05/01 09:24:25;;;;;;;9.13;6.07;;;16.90;74.30;;;;;;5113141;28;20035;-74
2023/05/01 09:26:51;;;;;;;11.50;6.90;;;16.90;73.40;;;;;;5112215;28;20034;-74
2023/05/01 09:29:36;;;;;;;10.40;6.47;;;16.90;73.40;;;;;;5112080;28;20024;-74
2023/05/01 09:32:23;;;;;;;9.55;6.30;;;17.00;72.80;;;;;;5113044;28;20064;-74
2023/05/01 09:34:50;;;;;;;10.80;6.65;;;17.00;72.30;;;;;;5111906;28;20020;-74
2023/05/01 09:37:26;;;;;;;12.73;6.35;;;17.20;73.30;;;;;;5112049;28;20020;-74
2023/05/01 09:40:04;;;;;;;11.23;6.43;;;17.20;71.20;;;;;;5111941;28;20020;-74
2023/05/01 09:42:31;;;;;;;9.85;6.32;;;17.30;71.50;;;;;;5113008;28;20034;-74
2023/05/01 09:44:58;;;;;;;10.13;6.13;;;17.40;72.00;;;;;;5115732;28;20035;-74
2023/05/01 09:47:26;;;;;;;9.07;6.22;;;17.50;72.80;;;;;;5116830;28;20058;-74
2023/05/01 09:49:52;;;;;;;8.82;5.88;;;17.70;73.30;;;;;;5115827;28;20028;-74
2023/05/01 09:52:18;;;;;;;9.65;6.50;;;17.90;72.30;;;;;;5116761;28;20020;-74
2023/05/01 09:54:43;;;;;;;13.43;6.00;;;18.00;70.80;;;;;;5115565;28;20036;-74
2023/05/01 09:57:09;;;;;;;9.52;5.90;;;18.10;70.40;;;;;;5116611;28;20028;-74
2023/05/01 09:59:35;;;;;;;8.13;5.47;;;18.20;71.50;;;;;;5115735;28;20051;-74
2023/05/01 10:02:00;;;;;;;13.35;6.40;;;18.30;71.60;;;;;;5115525;28;20032;-74
2023/05/01 10:04:34;;;;;;;9.80;5.50;;;18.40;71.00;;;;;;5116491;28;20087;-74
2023/05/01 10:07:13;;;;;;;7.93;5.20;;;18.50;71.10;;;;;;5115671;28;20035;-75
2023/05/01 10:09:40;;;;;;;8.52;4.80;;;18.50;69.30;;;;;;5116565;28;20079;-74
2023/05/01 10:12:05;;;;;;;7.00;4.93;;;18.50;69.40;;;;;;5116310;28;20023;-74
2023/05/01 10:14:37;;;;;;;8.02;5.57;;;18.40;67.00;;;;;;5116165;28;20032;-74
2023/05/01 10:17:17;;;;;;;8.68;5.15;;;18.50;68.10;;;;;;5115272;28;20020;-74
2023/05/01 10:19:42;;;;;;;9.50;5.53;;;18.60;67.50;;;;;;5115959;28;20450;-75
2023/05/01 10:22:08;;;;;;;9.40;5.35;;;18.70;68.10;;;;;;5116130;28;20073;-74
2023/05/01 10:24:35;;;;;;;8.95;6.38;;;18.80;67.00;;;;;;5116020;28;20040;-74
2023/05/01 10:27:04;;;;;;;9.65;6.07;;;18.90;66.60;;;;;;5116142;28;20028;-74
2023/05/01 10:29:31;;;;;;;9.90;5.85;;;18.90;65.00;;;;;;5115013;28;20091;-74
2023/05/01 10:31:57;;;;;;;8.88;5.78;;;18.80;64.00;;;;;;5115958;28;20035;-74
2023/05/01 10:34:25;;;;;;;11.20;6.40;;;18.80;65.80;;;;;;5114710;28;20036;-74
2023/05/01 10:37:09;;;;;;;9.38;5.63;;;19.00;67.10;;;;;;5115926;28;20025;-74
2023/05/01 10:39:36;;;;;;;10.18;6.25;;;19.10;67.00;;;;;;5115856;28;20016;-74
2023/05/01 10:42:13;;;;;;;9.73;5.90;;;19.30;67.20;;;;;;5115790;28;20158;-74
2023/05/01 10:44:41;;;;;;;10.75;5.55;;;19.40;67.80;;;;;;5114860;28;20039;-74
2023/05/01 10:47:29;;;;;;;8.68;5.68;;;19.50;66.70;;;;;;5114727;28;20091;-74
2023/05/01 10:50:07;;;;;;;13.73;6.13;;;19.70;66.50;;;;;;5115649;28;20020;-74
2023/05/01 10:53:03;;;;;;;8.43;5.70;;;19.80;65.40;;;;;;5115567;28;20564;-75
2023/05/01 10:55:36;;;;;;;14.23;6.30;;;19.80;65.00;;;;;;5114624;28;20084;-74
2023/05/01 10:58:02;;;;;;;11.63;5.93;;;19.90;65.60;;;;;;5114568;28;20384;-75
2023/05/01 11:00:28;;;;;;;9.98;6.45;;;20.00;66.30;;;;;;5114366;28;20024;-74
2023/05/01 11:03:20;;;;;;;11.27;6.60;;;20.20;65.80;;;;;;5115381;28;20016;-75
2023/05/01 11:06:04;;;;;;;11.17;7.23;;;20.10;62.70;;;;;;5076105;28;20032;-74
2023/05/01 11:08:33;;;;;;;9.40;6.40;;;19.90;61.60;;;;;;5114437;28;20055;-74
2023/05/01 11:11:21;;;;;;;12.00;6.38;;;20.00;64.90;;;;;;5115198;28;20025;-74
2023/05/01 11:14:07;;;;;;;11.63;6.53;;;20.30;66.40;;;;;;5115170;28;20026;-74
2023/05/01 11:16:36;;;;;;;9.55;6.53;;;20.40;63.20;;;;;;5114994;28;20046;-75
2023/05/01 11:19:02;;;;;;;10.60;6.45;;;20.40;63.80;;;;;;5115063;28;20027;-75
2023/05/01 11:21:29;;;;;;;10.73;5.88;;;20.50;64.00;;;;;;5114897;28;20071;-75
2023/05/01 11:23:54;;;;;;;10.73;5.75;;;20.50;63.70;;;;;;5114949;28;20087;-75
2023/05/01 11:26:22;;;;;;;8.73;5.40;;;20.50;63.60;;;;;;5096989;28;20035;-75
2023/05/01 11:28:49;;;;;;;11.10;6.63;;;20.50;63.90;;;;;;5114816;28;20024;-74
2023/05/01 11:31:19;;;;;;;9.25;6.45;;;20.50;63.80;;;;;;5114760;28;20012;-75
2023/05/01 11:33:45;;;;;;;8.75;6.47;;;20.50;63.70;;;;;;5114620;28;20024;-74
2023/05/01 11:36:12;;;;;;;9.82;5.95;;;20.40;63.70;;;;;;5113767;28;20013;-75
2023/05/01 11:38:38;;;;;;;13.00;6.57;;;20.50;64.00;;;;;;5114700;28;20030;-74
2023/05/01 11:41:04;;;;;;;8.98;5.53;;;20.50;64.00;;;;;;5114638;28;20079;-74
2023/05/01 11:43:30;;;;;;;10.48;5.80;;;20.40;63.40;;;;;;5114551;28;20043;-74
2023/05/01 11:46:01;;;;;;;10.38;6.45;;;20.40;63.20;;;;;;5114563;28;20028;-75
2023/05/01 11:48:27;;;;;;;9.82;6.13;;;20.40;63.70;;;;;;5114529;28;20020;-74
2023/05/01 11:50:53;;;;;;;10.52;6.55;;;20.40;63.30;;;;;;5113498;28;20036;-74
2023/05/01 11:53:19;;;;;;;8.40;5.60;;;20.30;63.20;;;;;;5113389;28;20084;-75
2023/05/01 11:55:45;;;;;;;8.60;5.55;;;20.30;63.20;;;;;;5114264;28;20028;-75
2023/05/01 11:58:11;;;;;;;9.02;5.63;;;20.30;63.60;;;;;;5114323;28;20095;-74
2023/05/01 12:00:41;;;;;;;9.25;5.43;;;20.30;63.20;;;;;;5114289;28;20028;-74
2023/05/01 12:03:08;;;;;;;9.00;5.25;;;20.30;62.40;;;;;;5114406;28;20028;-75
2023/05/01 12:05:36;;;;;;;8.60;5.18;;;20.40;62.00;;;;;;5114171;28;20023;-74
2023/05/01 12:08:22;;;;;;;7.03;5.13;;;20.50;63.00;;;;;;5113057;28;20035;-75
2023/05/01 12:10:55;;;;;;;8.05;5.28;;;20.50;62.10;;;;;;5113107;28;20028;-75
2023/05/01 12:13:21;;;;;;;7.30;5.63;;;20.50;61.30;;;;;;5114105;28;20048;-74
2023/05/01 12:15:52;;;;;;;9.63;5.38;;;20.50;61.60;;;;;;5112855;28;20039;-75
2023/05/01 12:18:20;;;;;;;11.07;5.70;;;20.70;62.70;;;;;;5113005;28;20016;-75
2023/05/01 12:20:51;;;;;;;9.30;5.65;;;20.80;60.80;;;;;;5112702;28;20051;-75
2023/05/01 12:23:19;;;;;;;10.23;5.15;;;20.90;61.20;;;;;;5112843;28;20028;-75
2023/05/01 12:25:45;;;;;;;10.68;6.53;;;21.00;61.30;;;;;;5113853;28;20551;-75
2023/05/01 12:28:18;;;;;;;10.63;6.50;;;21.10;61.40;;;;;;5112941;28;20443;-75
2023/05/01 12:30:46;;;;;;;9.35;5.93;;;21.10;60.80;;;;;;5113806;28;20028;-74
2023/05/01 12:33:19;;;;;;;8.30;5.53;;;21.00;60.00;;;;;;5113757;28;20111;-75
2023/05/01 12:35:46;;;;;;;8.38;5.93;;;20.90;60.30;;;;;;5112616;28;20028;-75
2023/05/01 12:38:14;;;;;;;10.18;5.85;;;20.90;60.70;;;;;;5113649;28;20043;-75
2023/05/01 12:40:53;;;;;;;8.48;5.57;;;21.00;61.50;;;;;;5113628;28;20072;-76
2023/05/01 12:43:21;;;;;;;11.48;5.22;;;21.20;60.80;;;;;;5113644;28;20103;-74
2023/05/01 12:45:51;;;;;;;11.75;5.45;;;21.30;61.00;;;;;;5113550;28;20020;-75
2023/05/01 12:48:17;;;;;;;6.40;4.20;;;21.30;60.80;;;;;;5113522;28;20028;-75
2023/05/01 12:50:45;;;;;;;7.68;4.45;;;21.30;59.30;;;;;;5113484;28;20083;-75
2023/05/01 12:53:11;;;;;;;7.95;4.30;;;21.30;58.40;;;;;;5113466;28;20024;-74